sensor_id;sensor_type;location;lat;lon;timestamp;P1;durP1;ratioP1;P2;durP2;ratioP2
39896;SDS011;25567;48.276;14.242;2023-05-10T00:00:07;8.10;;;4.03;;
39896;SDS011;25567;48.276;14.242;2023-05-10T00:02:35;8.82;;;4.65;;
39896;SDS011;25567;48.276;14.242;2023-05-10T00:05:02;8.30;;;4.95;;
39896;SDS011;25567;48.276;14.242;2023-05-10T00:07:28;8.88;;;4.88;;
39896;SDS011;25567;48.276;14.242;2023-05-10T00:09:55;13.02;;;4.72;;
39896;SDS011;25567;48.276;14.242;2023-05-10T00:12:21;8.55;;;4.57;;
39896;SDS011;25567;48.276;14.242;2023-05-10T00:14:48;8.57;;;4.80;;
39896;SDS011;25567;48.276;14.242;2023-05-10T00:17:14;9.60;;;4.53;;
39896;SDS011;25567;48.276;14.242;2023-05-10T00:19:40;7.90;;;4.35;;
39896;SDS011;25567;48.276;14.242;2023-05-10T00:22:07;11.50;;;4.25;;
39896;SDS011;25567;48.276;14.242;2023-05-10T00:24:33;10.25;;;4.47;;
39896;SDS011;25567;48.276;14.242;2023-05-10T00:27:00;7.68;;;4.47;;
39896;SDS011;25567;48.276;14.242;2023-05-10T00:29:26;13.52;;;5.28;;
39896;SDS011;25567;48.276;14.242;2023-05-10T00:31:54;9.88;;;4.80;;
39896;SDS011;25567;48.276;14.242;2023-05-10T00:34:21;8.77;;;4.40;;
39896;SDS011;25567;48.276;14.242;2023-05-10T00:36:47;8.95;;;4.53;;
39896;SDS011;25567;48.276;14.242;2023-05-10T00:39:14;9.38;;;4.00;;
39896;SDS011;25567;48.276;14.242;2023-05-10T00:41:40;5.93;;;4.03;;
39896;SDS011;25567;48.276;14.242;2023-05-10T00:44:07;9.63;;;4.68;;
39896;SDS011;25567;48.276;14.242;2023-05-10T00:46:34;8.13;;;4.20;;
39896;SDS011;25567;48.276;14.242;2023-05-10T00:49:00;7.93;;;4.07;;
39896;SDS011;25567;48.276;14.242;2023-05-10T00:51:27;9.68;;;4.60;;
39896;SDS011;25567;48.276;14.242;2023-05-10T00:53:53;6.63;;;4.00;;
39896;SDS011;25567;48.276;14.242;2023-05-10T00:56:22;7.30;;;4.22;;
39896;SDS011;25567;48.276;14.242;2023-05-10T00:58:49;9.43;;;4.10;;
39896;SDS011;25567;48.276;14.242;2023-05-10T01:01:16;7.05;;;3.70;;
39896;SDS011;25567;48.276;14.242;2023-05-10T01:03:43;9.07;;;3.90;;
39896;SDS011;25567;48.276;14.242;2023-05-10T01:06:09;9.65;;;4.03;;
39896;SDS011;25567;48.276;14.242;2023-05-10T01:08:36;6.97;;;3.72;;
39896;SDS011;25567;48.276;14.242;2023-05-10T01:11:03;9.65;;;4.65;;
39896;SDS011;25567;48.276;14.242;2023-05-10T01:15:56;8.25;;;4.18;;
39896;SDS011;25567;48.276;14.242;2023-05-10T01:18:22;7.75;;;3.85;;
39896;SDS011;25567;48.276;14.242;2023-05-10T01:20:52;9.32;;;3.97;;
39896;SDS011;25567;48.276;14.242;2023-05-10T01:24:24;11.45;;;4.40;;
39896;SDS011;25567;48.276;14.242;2023-05-10T01:26:22;10.38;;;4.32;;
39896;SDS011;25567;48.276;14.242;2023-05-10T01:29:13;7.95;;;4.03;;
39896;SDS011;25567;48.276;14.242;2023-05-10T01:34:19;12.52;;;4.53;;
39896;SDS011;25567;48.276;14.242;2023-05-10T01:37:02;10.43;;;4.40;;
39896;SDS011;25567;48.276;14.242;2023-05-10T01:42:25;8.48;;;4.38;;
39896;SDS011;25567;48.276;14.242;2023-05-10T01:44:55;10.07;;;4.40;;
39896;SDS011;25567;48.276;14.242;2023-05-10T01:49:50;10.43;;;4.43;;
39896;SDS011;25567;48.276;14.242;2023-05-10T01:52:18;9.57;;;4.40;;
39896;SDS011;25567;48.276;14.242;2023-05-10T01:54:49;6.60;;;4.00;;
39896;SDS011;25567;48.276;14.242;2023-05-10T01:57:20;6.30;;;4.30;;
39896;SDS011;25567;48.276;14.242;2023-05-10T01:59:46;5.47;;;3.65;;
39896;SDS011;25567;48.276;14.242;2023-05-10T02:02:15;9.35;;;3.85;;
39896;SDS011;25567;48.276;14.242;2023-05-10T02:04:43;8.73;;;4.20;;
39896;SDS011;25567;48.276;14.242;2023-05-10T02:07:10;9.27;;;4.18;;
39896;SDS011;25567;48.276;14.242;2023-05-10T02:09:37;7.00;;;4.15;;
39896;SDS011;25567;48.276;14.242;2023-05-10T02:12:04;7.28;;;3.90;;
39896;SDS011;25567;48.276;14.242;2023-05-10T02:14:32;8.88;;;4.00;;
39896;SDS011;25567;48.276;14.242;2023-05-10T02:16:58;8.85;;;3.88;;
39896;SDS011;25567;48.276;14.242;2023-05-10T02:19:26;9.80;;;4.63;;
39896;SDS011;25567;48.276;14.242;2023-05-10T02:21:54;9.15;;;4.28;;
39896;SDS011;25567;48.276;14.242;2023-05-10T02:24:21;7.47;;;4.43;;
39896;SDS011;25567;48.276;14.242;2023-05-10T02:26:48;8.00;;;3.92;;
39896;SDS011;25567;48.276;14.242;2023-05-10T02:29:15;9.20;;;4.40;;
39896;SDS011;25567;48.276;14.242;2023-05-10T02:31:43;9.10;;;4.72;;
39896;SDS011;25567;48.276;14.242;2023-05-10T02:34:10;10.35;;;3.97;;
39896;SDS011;25567;48.276;14.242;2023-05-10T02:36:37;8.50;;;4.63;;
39896;SDS011;25567;48.276;14.242;2023-05-10T02:39:04;7.65;;;4.18;;
39896;SDS011;25567;48.276;14.242;2023-05-10T02:41:35;7.55;;;4.18;;
39896;SDS011;25567;48.276;14.242;2023-05-10T02:44:02;7.82;;;4.38;;
39896;SDS011;25567;48.276;14.242;2023-05-10T02:46:29;7.13;;;4.32;;
39896;SDS011;25567;48.276;14.242;2023-05-10T02:48:56;7.00;;;4.18;;
39896;SDS011;25567;48.276;14.242;2023-05-10T02:51:24;7.47;;;4.15;;
39896;SDS011;25567;48.276;14.242;2023-05-10T02:53:51;8.20;;;4.50;;
39896;SDS011;25567;48.276;14.242;2023-05-10T02:56:28;7.53;;;4.53;;
39896;SDS011;25567;48.276;14.242;2023-05-10T02:58:57;10.18;;;5.22;;
39896;SDS011;25567;48.276;14.242;2023-05-10T03:01:24;7.55;;;4.50;;
39896;SDS011;25567;48.276;14.242;2023-05-10T03:03:51;9.85;;;4.85;;
39896;SDS011;25567;48.276;14.242;2023-05-10T03:06:17;10.07;;;4.80;;
39896;SDS011;25567;48.276;14.242;2023-05-10T03:08:44;13.57;;;5.10;;
39896;SDS011;25567;48.276;14.242;2023-05-10T03:16:42;9.68;;;4.72;;
39896;SDS011;25567;48.276;14.242;2023-05-10T03:21:42;9.63;;;4.90;;
39896;SDS011;25567;48.276;14.242;2023-05-10T03:24:11;10.95;;;5.07;;
39896;SDS011;25567;48.276;14.242;2023-05-10T03:26:38;11.10;;;4.88;;
39896;SDS011;25567;48.276;14.242;2023-05-10T03:29:05;8.98;;;5.35;;
39896;SDS011;25567;48.276;14.242;2023-05-10T03:31:32;9.52;;;4.15;;
39896;SDS011;25567;48.276;14.242;2023-05-10T03:33:59;7.95;;;4.97;;
39896;SDS011;25567;48.276;14.242;2023-05-10T03:36:25;12.73;;;4.97;;
39896;SDS011;25567;48.276;14.242;2023-05-10T03:38:52;8.00;;;4.75;;
39896;SDS011;25567;48.276;14.242;2023-05-10T03:41:18;12.48;;;4.20;;
39896;SDS011;25567;48.276;14.242;2023-05-10T03:43:45;9.55;;;4.72;;
39896;SDS011;25567;48.276;14.242;2023-05-10T03:46:11;10.68;;;5.18;;
39896;SDS011;25567;48.276;14.242;2023-05-10T03:48:38;15.02;;;4.35;;
39896;SDS011;25567;48.276;14.242;2023-05-10T03:51:04;9.85;;;5.32;;
39896;SDS011;25567;48.276;14.242;2023-05-10T03:53:31;10.18;;;5.00;;
39896;SDS011;25567;48.276;14.242;2023-05-10T03:55:57;13.77;;;5.30;;
39896;SDS011;25567;48.276;14.242;2023-05-10T03:58:24;10.77;;;5.13;;
39896;SDS011;25567;48.276;14.242;2023-05-10T04:00:51;11.95;;;5.07;;
39896;SDS011;25567;48.276;14.242;2023-05-10T04:03:17;12.55;;;5.18;;
39896;SDS011;25567;48.276;14.242;2023-05-10T04:05:44;8.73;;;4.78;;
39896;SDS011;25567;48.276;14.242;2023-05-10T04:08:11;10.73;;;5.40;;
39896;SDS011;25567;48.276;14.242;2023-05-10T04:10:37;10.77;;;4.97;;
39896;SDS011;25567;48.276;14.242;2023-05-10T04:13:03;18.10;;;5.60;;
39896;SDS011;25567;48.276;14.242;2023-05-10T04:15:30;8.95;;;5.10;;
39896;SDS011;25567;48.276;14.242;2023-05-10T04:17:56;8.05;;;5.07;;
39896;SDS011;25567;48.276;14.242;2023-05-10T04:20:23;12.55;;;4.88;;
39896;SDS011;25567;48.276;14.242;2023-05-10T04:22:50;17.27;;;5.78;;
39896;SDS011;25567;48.276;14.242;2023-05-10T04:25:16;10.18;;;5.28;;
39896;SDS011;25567;48.276;14.242;2023-05-10T04:27:43;10.48;;;5.55;;
39896;SDS011;25567;48.276;14.242;2023-05-10T04:30:09;13.93;;;5.03;;
39896;SDS011;25567;48.276;14.242;2023-05-10T04:32:36;8.50;;;4.75;;
39896;SDS011;25567;48.276;14.242;2023-05-10T04:35:03;11.55;;;5.63;;
39896;SDS011;25567;48.276;14.242;2023-05-10T04:37:30;9.65;;;4.90;;
39896;SDS011;25567;48.276;14.242;2023-05-10T04:39:57;8.43;;;5.00;;
39896;SDS011;25567;48.276;14.242;2023-05-10T04:42:23;17.02;;;5.18;;
39896;SDS011;25567;48.276;14.242;2023-05-10T04:44:50;10.10;;;4.85;;
39896;SDS011;25567;48.276;14.242;2023-05-10T04:47:18;8.85;;;5.20;;
39896;SDS011;25567;48.276;14.242;2023-05-10T04:49:44;10.93;;;4.90;;
39896;SDS011;25567;48.276;14.242;2023-05-10T04:52:11;17.08;;;5.63;;
39896;SDS011;25567;48.276;14.242;2023-05-10T04:54:38;10.48;;;5.75;;
39896;SDS011;25567;48.276;14.242;2023-05-10T04:57:04;11.93;;;5.85;;
39896;SDS011;25567;48.276;14.242;2023-05-10T04:59:31;9.38;;;4.85;;
39896;SDS011;25567;48.276;14.242;2023-05-10T05:01:57;10.27;;;5.63;;
39896;SDS011;25567;48.276;14.242;2023-05-10T05:04:24;9.32;;;4.88;;
39896;SDS011;25567;48.276;14.242;2023-05-10T05:06:51;18.55;;;5.35;;
39896;SDS011;25567;48.276;14.242;2023-05-10T05:09:19;9.57;;;5.35;;
39896;SDS011;25567;48.276;14.242;2023-05-10T05:11:46;9.43;;;4.97;;
39896;SDS011;25567;48.276;14.242;2023-05-10T05:14:12;12.60;;;5.40;;
39896;SDS011;25567;48.276;14.242;2023-05-10T05:16:39;10.60;;;5.13;;
39896;SDS011;25567;48.276;14.242;2023-05-10T05:19:05;10.18;;;5.47;;
39896;SDS011;25567;48.276;14.242;2023-05-10T05:21:32;12.65;;;5.53;;
39896;SDS011;25567;48.276;14.242;2023-05-10T05:23:58;13.55;;;5.63;;
39896;SDS011;25567;48.276;14.242;2023-05-10T05:26:26;11.43;;;5.53;;
39896;SDS011;25567;48.276;14.242;2023-05-10T05:28:52;14.10;;;6.07;;
39896;SDS011;25567;48.276;14.242;2023-05-10T05:31:20;17.70;;;6.25;;
39896;SDS011;25567;48.276;14.242;2023-05-10T05:33:47;15.43;;;5.70;;
39896;SDS011;25567;48.276;14.242;2023-05-10T05:36:14;19.02;;;6.78;;
39896;SDS011;25567;48.276;14.242;2023-05-10T05:38:40;14.23;;;6.15;;
39896;SDS011;25567;48.276;14.242;2023-05-10T05:41:07;14.15;;;5.95;;
39896;SDS011;25567;48.276;14.242;2023-05-10T05:43:33;18.33;;;6.90;;
39896;SDS011;25567;48.276;14.242;2023-05-10T05:46:03;22.27;;;7.40;;
39896;SDS011;25567;48.276;14.242;2023-05-10T05:48:30;15.25;;;6.53;;
39896;SDS011;25567;48.276;14.242;2023-05-10T05:50:56;17.80;;;6.97;;
39896;SDS011;25567;48.276;14.242;2023-05-10T05:53:23;14.93;;;5.97;;
39896;SDS011;25567;48.276;14.242;2023-05-10T05:55:53;20.83;;;6.97;;
39896;SDS011;25567;48.276;14.242;2023-05-10T05:58:23;15.75;;;7.05;;
39896;SDS011;25567;48.276;14.242;2023-05-10T06:00:50;17.25;;;7.53;;
39896;SDS011;25567;48.276;14.242;2023-05-10T06:03:18;22.85;;;7.70;;
39896;SDS011;25567;48.276;14.242;2023-05-10T06:05:44;16.40;;;6.70;;
39896;SDS011;25567;48.276;14.242;2023-05-10T06:08:11;18.38;;;7.38;;
39896;SDS011;25567;48.276;14.242;2023-05-10T06:10:37;15.23;;;7.30;;
39896;SDS011;25567;48.276;14.242;2023-05-10T06:13:04;14.18;;;7.00;;
39896;SDS011;25567;48.276;14.242;2023-05-10T06:15:30;16.92;;;6.97;;
39896;SDS011;25567;48.276;14.242;2023-05-10T06:17:57;19.88;;;11.45;;
39896;SDS011;25567;48.276;14.242;2023-05-10T06:20:23;17.10;;;7.97;;
39896;SDS011;25567;48.276;14.242;2023-05-10T06:22:50;18.35;;;7.95;;
39896;SDS011;25567;48.276;14.242;2023-05-10T06:25:16;18.60;;;8.52;;
39896;SDS011;25567;48.276;14.242;2023-05-10T06:27:44;16.73;;;7.68;;
39896;SDS011;25567;48.276;14.242;2023-05-10T06:30:16;16.83;;;8.55;;
39896;SDS011;25567;48.276;14.242;2023-05-10T06:32:42;24.02;;;8.05;;
39896;SDS011;25567;48.276;14.242;2023-05-10T06:35:10;19.52;;;8.95;;
39896;SDS011;25567;48.276;14.242;2023-05-10T06:37:36;16.60;;;8.25;;
39896;SDS011;25567;48.276;14.242;2023-05-10T06:40:03;20.55;;;8.55;;
39896;SDS011;25567;48.276;14.242;2023-05-10T06:42:30;18.13;;;8.55;;
39896;SDS011;25567;48.276;14.242;2023-05-10T06:44:56;35.20;;;9.45;;
39896;SDS011;25567;48.276;14.242;2023-05-10T06:47:23;34.88;;;9.90;;
39896;SDS011;25567;48.276;14.242;2023-05-10T06:49:49;25.90;;;8.80;;
39896;SDS011;25567;48.276;14.242;2023-05-10T06:52:15;15.98;;;8.43;;
39896;SDS011;25567;48.276;14.242;2023-05-10T06:54:42;18.52;;;9.48;;
39896;SDS011;25567;48.276;14.242;2023-05-10T06:57:08;19.63;;;9.60;;
39896;SDS011;25567;48.276;14.242;2023-05-10T06:59:55;17.50;;;8.38;;
39896;SDS011;25567;48.276;14.242;2023-05-10T07:02:22;21.45;;;9.07;;
39896;SDS011;25567;48.276;14.242;2023-05-10T07:04:48;22.85;;;9.80;;
39896;SDS011;25567;48.276;14.242;2023-05-10T07:07:15;19.30;;;9.70;;
39896;SDS011;25567;48.276;14.242;2023-05-10T07:09:42;25.40;;;11.80;;
39896;SDS011;25567;48.276;14.242;2023-05-10T07:12:08;26.52;;;10.73;;
39896;SDS011;25567;48.276;14.242;2023-05-10T07:14:37;16.88;;;9.35;;
39896;SDS011;25567;48.276;14.242;2023-05-10T07:17:04;19.27;;;9.77;;
39896;SDS011;25567;48.276;14.242;2023-05-10T07:19:30;18.13;;;10.45;;
39896;SDS011;25567;48.276;14.242;2023-05-10T07:21:58;21.05;;;8.98;;
39896;SDS011;25567;48.276;14.242;2023-05-10T07:24:25;20.35;;;9.35;;
39896;SDS011;25567;48.276;14.242;2023-05-10T07:26:51;19.75;;;9.13;;
39896;SDS011;25567;48.276;14.242;2023-05-10T07:29:18;21.02;;;9.38;;
39896;SDS011;25567;48.276;14.242;2023-05-10T07:31:44;15.85;;;8.57;;
39896;SDS011;25567;48.276;14.242;2023-05-10T07:34:11;19.10;;;9.35;;
39896;SDS011;25567;48.276;14.242;2023-05-10T07:36:37;16.55;;;8.38;;
39896;SDS011;25567;48.276;14.242;2023-05-10T07:39:04;18.90;;;8.20;;
39896;SDS011;25567;48.276;14.242;2023-05-10T07:41:31;25.23;;;9.57;;
39896;SDS011;25567;48.276;14.242;2023-05-10T07:43:59;15.25;;;8.10;;
39896;SDS011;25567;48.276;14.242;2023-05-10T07:46:25;14.35;;;7.88;;
39896;SDS011;25567;48.276;14.242;2023-05-10T07:48:52;18.58;;;9.60;;
39896;SDS011;25567;48.276;14.242;2023-05-10T07:51:18;15.73;;;7.72;;
39896;SDS011;25567;48.276;14.242;2023-05-10T07:53:45;19.63;;;8.45;;
39896;SDS011;25567;48.276;14.242;2023-05-10T07:56:24;24.63;;;9.20;;
39896;SDS011;25567;48.276;14.242;2023-05-10T07:58:53;24.88;;;9.63;;
39896;SDS011;25567;48.276;14.242;2023-05-10T08:01:20;23.55;;;9.68;;
39896;SDS011;25567;48.276;14.242;2023-05-10T08:03:46;33.40;;;10.18;;
39896;SDS011;25567;48.276;14.242;2023-05-10T08:06:13;25.35;;;10.50;;
39896;SDS011;25567;48.276;14.242;2023-05-10T08:08:40;31.35;;;12.30;;
39896;SDS011;25567;48.276;14.242;2023-05-10T08:11:07;33.10;;;11.40;;
39896;SDS011;25567;48.276;14.242;2023-05-10T08:13:33;33.67;;;12.88;;
39896;SDS011;25567;48.276;14.242;2023-05-10T08:16:00;26.90;;;12.63;;
39896;SDS011;25567;48.276;14.242;2023-05-10T08:18:26;27.45;;;13.57;;
39896;SDS011;25567;48.276;14.242;2023-05-10T08:20:53;30.65;;;14.02;;
39896;SDS011;25567;48.276;14.242;2023-05-10T08:23:20;31.30;;;13.23;;
39896;SDS011;25567;48.276;14.242;2023-05-10T08:25:46;34.05;;;13.95;;
39896;SDS011;25567;48.276;14.242;2023-05-10T08:28:13;30.10;;;13.27;;
39896;SDS011;25567;48.276;14.242;2023-05-10T08:30:39;32.65;;;13.40;;
39896;SDS011;25567;48.276;14.242;2023-05-10T08:33:06;36.03;;;14.40;;
39896;SDS011;25567;48.276;14.242;2023-05-10T08:35:32;37.55;;;12.95;;
39896;SDS011;25567;48.276;14.242;2023-05-10T08:38:01;34.35;;;14.07;;
39896;SDS011;25567;48.276;14.242;2023-05-10T08:40:27;32.75;;;13.75;;
39896;SDS011;25567;48.276;14.242;2023-05-10T08:42:55;36.50;;;14.18;;
39896;SDS011;25567;48.276;14.242;2023-05-10T08:45:24;28.65;;;14.27;;
39896;SDS011;25567;48.276;14.242;2023-05-10T08:47:53;32.22;;;14.00;;
39896;SDS011;25567;48.276;14.242;2023-05-10T08:50:20;29.08;;;14.05;;
39896;SDS011;25567;48.276;14.242;2023-05-10T08:52:48;34.22;;;13.77;;
39896;SDS011;25567;48.276;14.242;2023-05-10T08:55:17;27.45;;;13.75;;
39896;SDS011;25567;48.276;14.242;2023-05-10T08:57:44;27.02;;;13.07;;
39896;SDS011;25567;48.276;14.242;2023-05-10T09:00:11;26.23;;;13.20;;
39896;SDS011;25567;48.276;14.242;2023-05-10T09:02:38;22.90;;;10.93;;
39896;SDS011;25567;48.276;14.242;2023-05-10T09:05:06;20.95;;;10.18;;
39896;SDS011;25567;48.276;14.242;2023-05-10T09:07:33;17.77;;;9.90;;
39896;SDS011;25567;48.276;14.242;2023-05-10T09:10:01;19.88;;;9.30;;
39896;SDS011;25567;48.276;14.242;2023-05-10T09:12:28;16.67;;;9.65;;
39896;SDS011;25567;48.276;14.242;2023-05-10T09:14:54;17.83;;;9.77;;
39896;SDS011;25567;48.276;14.242;2023-05-10T09:17:22;19.58;;;10.65;;
39896;SDS011;25567;48.276;14.242;2023-05-10T09:19:49;22.45;;;10.07;;
39896;SDS011;25567;48.276;14.242;2023-05-10T09:22:16;20.85;;;11.15;;
39896;SDS011;25567;48.276;14.242;2023-05-10T09:24:42;20.35;;;10.38;;
39896;SDS011;25567;48.276;14.242;2023-05-10T09:27:11;17.63;;;10.52;;
39896;SDS011;25567;48.276;14.242;2023-05-10T09:29:41;25.45;;;12.88;;
39896;SDS011;25567;48.276;14.242;2023-05-10T09:32:08;20.48;;;12.00;;
39896;SDS011;25567;48.276;14.242;2023-05-10T09:34:34;22.08;;;11.80;;
39896;SDS011;25567;48.276;14.242;2023-05-10T09:37:02;20.98;;;10.52;;
39896;SDS011;25567;48.276;14.242;2023-05-10T09:39:33;20.30;;;10.00;;
39896;SDS011;25567;48.276;14.242;2023-05-10T09:42:01;20.42;;;10.27;;
39896;SDS011;25567;48.276;14.242;2023-05-10T09:44:27;21.23;;;10.75;;
39896;SDS011;25567;48.276;14.242;2023-05-10T09:46:54;21.25;;;10.55;;
39896;SDS011;25567;48.276;14.242;2023-05-10T09:49:21;18.13;;;10.02;;
39896;SDS011;25567;48.276;14.242;2023-05-10T09:51:50;22.98;;;12.35;;
39896;SDS011;25567;48.276;14.242;2023-05-10T09:54:23;23.67;;;12.48;;
39896;SDS011;25567;48.276;14.242;2023-05-10T09:56:50;25.60;;;12.43;;
39896;SDS011;25567;48.276;14.242;2023-05-10T09:59:16;23.65;;;12.70;;
39896;SDS011;25567;48.276;14.242;2023-05-10T10:01:49;32.25;;;15.30;;
39896;SDS011;25567;48.276;14.242;2023-05-10T10:04:15;29.90;;;14.75;;
39896;SDS011;25567;48.276;14.242;2023-05-10T10:06:42;29.65;;;15.45;;
39896;SDS011;25567;48.276;14.242;2023-05-10T10:09:09;33.85;;;17.63;;
39896;SDS011;25567;48.276;14.242;2023-05-10T10:11:36;35.17;;;19.27;;
39896;SDS011;25567;48.276;14.242;2023-05-10T10:14:03;44.72;;;21.23;;
39896;SDS011;25567;48.276;14.242;2023-05-10T10:16:31;31.05;;;15.50;;
39896;SDS011;25567;48.276;14.242;2023-05-10T10:18:58;35.88;;;16.83;;
39896;SDS011;25567;48.276;14.242;2023-05-10T10:21:25;39.55;;;19.27;;
39896;SDS011;25567;48.276;14.242;2023-05-10T10:23:51;93.85;;;46.30;;
39896;SDS011;25567;48.276;14.242;2023-05-10T10:26:19;55.17;;;25.25;;
39896;SDS011;25567;48.276;14.242;2023-05-10T10:29:31;47.58;;;22.08;;
39896;SDS011;25567;48.276;14.242;2023-05-10T10:34:06;53.25;;;24.30;;
39896;SDS011;25567;48.276;14.242;2023-05-10T10:36:39;57.13;;;25.17;;
39896;SDS011;25567;48.276;14.242;2023-05-10T10:39:08;49.55;;;25.00;;
39896;SDS011;25567;48.276;14.242;2023-05-10T10:41:36;47.90;;;22.50;;
39896;SDS011;25567;48.276;14.242;2023-05-10T10:49:25;54.20;;;23.10;;
39896;SDS011;25567;48.276;14.242;2023-05-10T10:54:36;40.10;;;19.08;;
39896;SDS011;25567;48.276;14.242;2023-05-10T10:57:12;36.17;;;18.63;;
39896;SDS011;25567;48.276;14.242;2023-05-10T10:59:42;39.72;;;19.35;;
39896;SDS011;25567;48.276;14.242;2023-05-10T11:04:57;37.65;;;18.80;;
39896;SDS011;25567;48.276;14.242;2023-05-10T11:07:23;35.15;;;18.33;;
39896;SDS011;25567;48.276;14.242;2023-05-10T11:09:50;44.45;;;23.48;;
39896;SDS011;25567;48.276;14.242;2023-05-10T11:12:17;37.65;;;18.73;;
39896;SDS011;25567;48.276;14.242;2023-05-10T11:14:49;26.75;;;14.95;;
39896;SDS011;25567;48.276;14.242;2023-05-10T11:17:22;27.95;;;14.65;;
39896;SDS011;25567;48.276;14.242;2023-05-10T11:22:51;55.70;;;25.77;;
39896;SDS011;25567;48.276;14.242;2023-05-10T11:25:18;40.20;;;20.23;;
39896;SDS011;25567;48.276;14.242;2023-05-10T11:27:45;62.15;;;32.80;;
39896;SDS011;25567;48.276;14.242;2023-05-10T11:30:11;58.15;;;30.42;;
39896;SDS011;25567;48.276;14.242;2023-05-10T11:32:38;62.17;;;31.75;;
39896;SDS011;25567;48.276;14.242;2023-05-10T11:35:11;55.78;;;30.75;;
39896;SDS011;25567;48.276;14.242;2023-05-10T11:37:38;56.80;;;29.75;;
39896;SDS011;25567;48.276;14.242;2023-05-10T11:40:07;52.15;;;26.90;;
39896;SDS011;25567;48.276;14.242;2023-05-10T11:42:36;50.58;;;25.52;;
39896;SDS011;25567;48.276;14.242;2023-05-10T11:45:03;44.20;;;22.25;;
39896;SDS011;25567;48.276;14.242;2023-05-10T11:47:30;48.45;;;20.35;;
39896;SDS011;25567;48.276;14.242;2023-05-10T11:49:56;35.63;;;18.83;;
39896;SDS011;25567;48.276;14.242;2023-05-10T11:52:23;37.40;;;19.85;;
39896;SDS011;25567;48.276;14.242;2023-05-10T11:54:53;43.70;;;23.02;;
39896;SDS011;25567;48.276;14.242;2023-05-10T11:57:20;46.25;;;25.67;;
39896;SDS011;25567;48.276;14.242;2023-05-10T11:59:47;49.65;;;25.80;;
39896;SDS011;25567;48.276;14.242;2023-05-10T12:02:13;50.95;;;27.25;;
39896;SDS011;25567;48.276;14.242;2023-05-10T12:04:40;36.90;;;21.90;;
39896;SDS011;25567;48.276;14.242;2023-05-10T12:07:07;31.25;;;18.63;;
39896;SDS011;25567;48.276;14.242;2023-05-10T12:09:33;24.38;;;14.38;;
39896;SDS011;25567;48.276;14.242;2023-05-10T12:12:09;18.43;;;12.27;;
39896;SDS011;25567;48.276;14.242;2023-05-10T12:14:36;19.55;;;11.93;;
39896;SDS011;25567;48.276;14.242;2023-05-10T12:17:02;18.70;;;12.27;;
39896;SDS011;25567;48.276;14.242;2023-05-10T12:19:36;19.30;;;11.48;;
39896;SDS011;25567;48.276;14.242;2023-05-10T12:22:04;22.83;;;11.77;;
39896;SDS011;25567;48.276;14.242;2023-05-10T12:24:33;22.73;;;12.68;;
39896;SDS011;25567;48.276;14.242;2023-05-10T12:26:59;19.95;;;12.57;;
39896;SDS011;25567;48.276;14.242;2023-05-10T12:29:26;23.05;;;12.77;;
39896;SDS011;25567;48.276;14.242;2023-05-10T12:31:58;21.88;;;11.25;;
39896;SDS011;25567;48.276;14.242;2023-05-10T12:36:52;22.55;;;11.93;;
39896;SDS011;25567;48.276;14.242;2023-05-10T12:39:19;22.30;;;12.40;;
39896;SDS011;25567;48.276;14.242;2023-05-10T12:41:45;25.30;;;14.38;;
39896;SDS011;25567;48.276;14.242;2023-05-10T12:44:12;20.23;;;13.25;;
39896;SDS011;25567;48.276;14.242;2023-05-10T12:46:38;23.15;;;12.68;;
39896;SDS011;25567;48.276;14.242;2023-05-10T12:49:04;21.20;;;12.43;;
39896;SDS011;25567;48.276;14.242;2023-05-10T12:51:34;23.90;;;13.85;;
39896;SDS011;25567;48.276;14.242;2023-05-10T12:54:02;23.65;;;13.23;;
39896;SDS011;25567;48.276;14.242;2023-05-10T12:56:28;24.52;;;14.38;;
39896;SDS011;25567;48.276;14.242;2023-05-10T12:58:55;19.73;;;12.68;;
39896;SDS011;25567;48.276;14.242;2023-05-10T13:01:21;19.85;;;12.52;;
39896;SDS011;25567;48.276;14.242;2023-05-10T13:03:48;27.48;;;13.30;;
39896;SDS011;25567;48.276;14.242;2023-05-10T13:06:14;20.80;;;12.63;;
39896;SDS011;25567;48.276;14.242;2023-05-10T13:08:41;21.15;;;11.32;;
39896;SDS011;25567;48.276;14.242;2023-05-10T13:11:07;23.88;;;13.07;;
39896;SDS011;25567;48.276;14.242;2023-05-10T13:13:33;22.20;;;11.90;;
39896;SDS011;25567;48.276;14.242;2023-05-10T13:16:00;23.02;;;13.10;;
39896;SDS011;25567;48.276;14.242;2023-05-10T13:18:26;25.17;;;13.60;;
39896;SDS011;25567;48.276;14.242;2023-05-10T13:20:53;21.63;;;13.57;;
39896;SDS011;25567;48.276;14.242;2023-05-10T13:23:20;24.08;;;14.18;;
39896;SDS011;25567;48.276;14.242;2023-05-10T13:25:46;25.05;;;14.48;;
39896;SDS011;25567;48.276;14.242;2023-05-10T13:28:12;27.27;;;14.35;;
39896;SDS011;25567;48.276;14.242;2023-05-10T13:30:39;23.92;;;14.32;;
39896;SDS011;25567;48.276;14.242;2023-05-10T13:33:05;22.02;;;13.68;;
39896;SDS011;25567;48.276;14.242;2023-05-10T13:35:32;29.00;;;14.95;;
39896;SDS011;25567;48.276;14.242;2023-05-10T13:37:58;22.33;;;13.85;;
39896;SDS011;25567;48.276;14.242;2023-05-10T13:40:25;24.50;;;14.63;;
39896;SDS011;25567;48.276;14.242;2023-05-10T13:42:51;23.63;;;14.38;;
39896;SDS011;25567;48.276;14.242;2023-05-10T13:45:19;24.67;;;14.48;;
39896;SDS011;25567;48.276;14.242;2023-05-10T13:47:45;28.02;;;14.02;;
39896;SDS011;25567;48.276;14.242;2023-05-10T13:50:12;19.80;;;13.27;;
39896;SDS011;25567;48.276;14.242;2023-05-10T13:52:38;25.27;;;14.10;;
39896;SDS011;25567;48.276;14.242;2023-05-10T13:55:05;25.60;;;14.10;;
39896;SDS011;25567;48.276;14.242;2023-05-10T13:57:31;24.60;;;14.27;;
39896;SDS011;25567;48.276;14.242;2023-05-10T13:59:58;25.80;;;13.00;;
39896;SDS011;25567;48.276;14.242;2023-05-10T14:02:24;20.52;;;12.88;;
39896;SDS011;25567;48.276;14.242;2023-05-10T14:04:53;25.00;;;13.07;;
39896;SDS011;25567;48.276;14.242;2023-05-10T14:07:20;19.55;;;11.88;;
39896;SDS011;25567;48.276;14.242;2023-05-10T14:09:46;20.80;;;12.45;;
39896;SDS011;25567;48.276;14.242;2023-05-10T14:12:13;20.00;;;12.30;;
39896;SDS011;25567;48.276;14.242;2023-05-10T14:14:40;22.35;;;12.00;;
39896;SDS011;25567;48.276;14.242;2023-05-10T14:17:07;21.35;;;12.10;;
39896;SDS011;25567;48.276;14.242;2023-05-10T14:19:37;20.48;;;13.00;;
39896;SDS011;25567;48.276;14.242;2023-05-10T14:22:03;17.40;;;11.45;;
39896;SDS011;25567;48.276;14.242;2023-05-10T14:24:30;21.27;;;12.77;;
39896;SDS011;25567;48.276;14.242;2023-05-10T14:26:56;20.60;;;12.40;;
39896;SDS011;25567;48.276;14.242;2023-05-10T14:29:23;19.27;;;12.82;;
39896;SDS011;25567;48.276;14.242;2023-05-10T14:31:49;21.27;;;13.10;;
39896;SDS011;25567;48.276;14.242;2023-05-10T14:34:16;23.08;;;13.57;;
39896;SDS011;25567;48.276;14.242;2023-05-10T14:36:42;23.90;;;13.07;;
39896;SDS011;25567;48.276;14.242;2023-05-10T14:39:09;22.05;;;14.00;;
39896;SDS011;25567;48.276;14.242;2023-05-10T14:41:36;21.77;;;14.35;;
39896;SDS011;25567;48.276;14.242;2023-05-10T14:44:03;28.88;;;15.23;;
39896;SDS011;25567;48.276;14.242;2023-05-10T14:46:30;28.20;;;16.00;;
39896;SDS011;25567;48.276;14.242;2023-05-10T14:48:57;26.95;;;16.00;;
39896;SDS011;25567;48.276;14.242;2023-05-10T14:51:23;32.05;;;15.15;;
39896;SDS011;25567;48.276;14.242;2023-05-10T14:53:50;21.77;;;14.57;;
39896;SDS011;25567;48.276;14.242;2023-05-10T14:56:16;24.05;;;14.43;;